RYR6R EDDL-LKPR
Flight info
| Callsign | RYR6R |
|---|---|
| Flight time | 0h 57m |
| Altitude | 33000 |
| Route | MEVEL1Z MEVEL L179 MISRI Z851 ELTUK Z47 EXOBA DCT NOMKA DCT SUVUT L620 PIKIB T620 LALUK DCT GOLOP |
| Aircraft | B738/M-SDE2E3FGHIRWXY/LB1 |
Departure
| Time | 2026-05-06 07:17 |
|---|---|
| Airport | Düsseldorf Airport (EDDL) |
Arrival
| Time | 2026-05-06 08:14 |
|---|---|
| Airport | Václav Havel Airport Prague (LKPR) |
| Time | Latitude | Longitude | Altitude | Speed | Heading |
|---|---|---|---|---|---|
| 2026-05-06 06:37 | 51.28040 | 6.76366 | 136 ft | 0 kts | 197° |
| 2026-05-06 07:07 | 51.28041 | 6.76366 | 136 ft | 2 kts | 197° |
| 2026-05-06 07:07 | 51.28066 | 6.76378 | 136 ft | 4 kts | 196° |
| 2026-05-06 07:08 | 51.28087 | 6.76388 | 136 ft | 3 kts | 194° |
| 2026-05-06 07:08 | 51.28111 | 6.76387 | 136 ft | 4 kts | 148° |
| 2026-05-06 07:08 | 51.28130 | 6.76358 | 136 ft | 4 kts | 121° |
| 2026-05-06 07:08 | 51.28140 | 6.76328 | 136 ft | 4 kts | 127° |
| 2026-05-06 07:09 | 51.28158 | 6.76309 | 136 ft | 4 kts | 188° |
| 2026-05-06 07:09 | 51.28181 | 6.76326 | 136 ft | 4 kts | 221° |
| 2026-05-06 07:09 | 51.28197 | 6.76352 | 136 ft | 1 kts | 233° |
| 2026-05-06 07:12 | 51.28195 | 6.76347 | 136 ft | 4 kts | 233° |
| 2026-05-06 07:12 | 51.28177 | 6.76293 | 136 ft | 6 kts | 264° |
| 2026-05-06 07:13 | 51.28194 | 6.76238 | 136 ft | 6 kts | 300° |
| 2026-05-06 07:13 | 51.28194 | 6.76165 | 136 ft | 10 kts | 245° |
| 2026-05-06 07:13 | 51.28151 | 6.76069 | 136 ft | 10 kts | 231° |
| 2026-05-06 07:13 | 51.28108 | 6.75978 | 136 ft | 10 kts | 234° |
| 2026-05-06 07:14 | 51.28066 | 6.75889 | 136 ft | 11 kts | 232° |
| 2026-05-06 07:14 | 51.28019 | 6.75791 | 136 ft | 11 kts | 232° |
| 2026-05-06 07:14 | 51.27972 | 6.75693 | 136 ft | 11 kts | 232° |
| 2026-05-06 07:14 | 51.27924 | 6.75594 | 136 ft | 12 kts | 232° |
| 2026-05-06 07:15 | 51.27874 | 6.75490 | 135 ft | 12 kts | 232° |
| 2026-05-06 07:15 | 51.27839 | 6.75379 | 135 ft | 11 kts | 270° |
| 2026-05-06 07:15 | 51.27896 | 6.75306 | 133 ft | 11 kts | 335° |
| 2026-05-06 07:15 | 51.27967 | 6.75273 | 128 ft | 11 kts | 7° |
| 2026-05-06 07:16 | 51.28022 | 6.75333 | 128 ft | 8 kts | 51° |
| 2026-05-06 07:16 | 51.28026 | 6.75342 | 126 ft | 0 kts | 53° |
| 2026-05-06 07:16 | 51.28041 | 6.75374 | 128 ft | 10 kts | 53° |
| 2026-05-06 07:16 | 51.28184 | 6.75671 | 132 ft | 68 kts | 53° |
| 2026-05-06 07:17 | 51.28610 | 6.76565 | 133 ft | 132 kts | 52° |
| 2026-05-06 07:17 | 51.29273 | 6.77947 | 298 ft | 172 kts | 51° |
| 2026-05-06 07:17 | 51.29972 | 6.79537 | 1119 ft | 175 kts | 55° |
| 2026-05-06 07:17 | 51.30599 | 6.81139 | 2175 ft | 163 kts | 57° |
| 2026-05-06 07:18 | 51.31287 | 6.82602 | 2834 ft | 176 kts | 51° |
| 2026-05-06 07:18 | 51.32117 | 6.84232 | 3200 ft | 202 kts | 51° |
| 2026-05-06 07:18 | 51.33034 | 6.86051 | 3584 ft | 217 kts | 51° |
| 2026-05-06 07:18 | 51.34051 | 6.87978 | 3929 ft | 236 kts | 49° |
| 2026-05-06 07:19 | 51.35235 | 6.89971 | 4277 ft | 259 kts | 37° |
| 2026-05-06 07:19 | 51.36891 | 6.91199 | 4934 ft | 266 kts | 10° |
| 2026-05-06 07:19 | 51.38707 | 6.91558 | 5869 ft | 266 kts | 6° |
| 2026-05-06 07:19 | 51.40624 | 6.91935 | 6306 ft | 284 kts | 8° |
| 2026-05-06 07:20 | 51.42556 | 6.92406 | 7317 ft | 275 kts | 8° |
| 2026-05-06 07:20 | 51.44422 | 6.92778 | 8359 ft | 270 kts | 6° |
| 2026-05-06 07:20 | 51.46376 | 6.93216 | 8446 ft | 302 kts | 10° |
| 2026-05-06 07:20 | 51.48517 | 6.94317 | 8004 ft | 347 kts | 28° |
| 2026-05-06 07:21 | 51.50312 | 6.96739 | 9168 ft | 324 kts | 48° |
| 2026-05-06 07:21 | 51.51715 | 6.99219 | 11255 ft | 281 kts | 50° |
| 2026-05-06 07:21 | 51.52957 | 7.01614 | 12179 ft | 282 kts | 51° |
| 2026-05-06 07:21 | 51.54239 | 7.04144 | 12431 ft | 303 kts | 51° |
| 2026-05-06 07:22 | 51.55402 | 7.07090 | 12598 ft | 323 kts | 70° |
| 2026-05-06 07:22 | 51.56091 | 7.10635 | 12819 ft | 342 kts | 76° |
| 2026-05-06 07:22 | 51.56710 | 7.14436 | 12984 ft | 362 kts | 76° |
| 2026-05-06 07:22 | 51.57264 | 7.18487 | 13206 ft | 378 kts | 84° |
| 2026-05-06 07:23 | 51.57329 | 7.22762 | 13637 ft | 386 kts | 93° |
| 2026-05-06 07:23 | 51.57258 | 7.25635 | 13995 ft | 389 kts | 94° |
| 2026-05-06 07:23 | 51.57078 | 7.31455 | 14851 ft | 391 kts | 94° |
| 2026-05-06 07:23 | 51.56937 | 7.35857 | 15389 ft | 396 kts | 94° |
| 2026-05-06 07:24 | 51.56846 | 7.38796 | 15747 ft | 399 kts | 94° |
| 2026-05-06 07:24 | 51.56671 | 7.44730 | 16524 ft | 403 kts | 94° |
| 2026-05-06 07:24 | 51.56585 | 7.47780 | 16909 ft | 405 kts | 93° |
| 2026-05-06 07:24 | 51.56459 | 7.52334 | 17421 ft | 410 kts | 93° |
| 2026-05-06 07:25 | 51.56334 | 7.56929 | 17967 ft | 414 kts | 93° |
| 2026-05-06 07:25 | 51.56208 | 7.61557 | 18478 ft | 416 kts | 93° |
| 2026-05-06 07:25 | 51.56081 | 7.66218 | 19040 ft | 418 kts | 93° |
| 2026-05-06 07:25 | 51.55951 | 7.70884 | 19553 ft | 420 kts | 93° |
| 2026-05-06 07:26 | 51.55819 | 7.75601 | 20011 ft | 424 kts | 93° |
| 2026-05-06 07:26 | 51.55684 | 7.80339 | 20507 ft | 426 kts | 93° |
| 2026-05-06 07:26 | 51.55546 | 7.85098 | 21000 ft | 427 kts | 93° |
| 2026-05-06 07:26 | 51.55408 | 7.89817 | 21477 ft | 429 kts | 93° |
| 2026-05-06 07:27 | 51.55264 | 7.94618 | 21980 ft | 430 kts | 94° |
| 2026-05-06 07:27 | 51.55118 | 7.99446 | 22441 ft | 432 kts | 94° |
| 2026-05-06 07:27 | 51.54970 | 8.04279 | 22890 ft | 435 kts | 94° |
| 2026-05-06 07:27 | 51.54820 | 8.09136 | 23388 ft | 437 kts | 94° |
| 2026-05-06 07:28 | 51.54665 | 8.14031 | 23812 ft | 438 kts | 94° |
| 2026-05-06 07:28 | 51.54509 | 8.18932 | 24290 ft | 440 kts | 94° |
| 2026-05-06 07:28 | 51.54188 | 8.28801 | 25118 ft | 444 kts | 94° |
| 2026-05-06 07:29 | 51.54024 | 8.33770 | 25553 ft | 446 kts | 94° |
| 2026-05-06 07:29 | 51.53856 | 8.38756 | 25949 ft | 448 kts | 94° |
| 2026-05-06 07:29 | 51.53689 | 8.43694 | 26300 ft | 449 kts | 94° |
| 2026-05-06 07:29 | 51.53516 | 8.48717 | 26639 ft | 450 kts | 94° |
| 2026-05-06 07:30 | 51.53340 | 8.53750 | 26974 ft | 452 kts | 94° |
| 2026-05-06 07:30 | 51.53162 | 8.58795 | 27278 ft | 454 kts | 94° |
| 2026-05-06 07:30 | 51.52980 | 8.63884 | 27591 ft | 455 kts | 94° |
| 2026-05-06 07:30 | 51.52797 | 8.68961 | 27905 ft | 457 kts | 95° |
| 2026-05-06 07:31 | 51.52610 | 8.74072 | 28220 ft | 458 kts | 95° |
| 2026-05-06 07:31 | 51.52421 | 8.79166 | 28612 ft | 457 kts | 95° |
| 2026-05-06 07:31 | 51.52231 | 8.84257 | 29111 ft | 455 kts | 95° |
| 2026-05-06 07:31 | 51.52040 | 8.89302 | 29630 ft | 451 kts | 95° |
| 2026-05-06 07:32 | 51.51848 | 8.94327 | 30038 ft | 450 kts | 95° |
| 2026-05-06 07:32 | 51.51653 | 8.99339 | 30317 ft | 451 kts | 95° |
| 2026-05-06 07:32 | 51.51456 | 9.04362 | 30568 ft | 452 kts | 95° |
| 2026-05-06 07:32 | 51.51256 | 9.09409 | 30853 ft | 452 kts | 95° |
| 2026-05-06 07:33 | 51.51057 | 9.14379 | 31161 ft | 451 kts | 95° |
| 2026-05-06 07:33 | 51.50853 | 9.19413 | 31454 ft | 451 kts | 95° |
| 2026-05-06 07:33 | 51.50648 | 9.24440 | 31732 ft | 452 kts | 95° |
| 2026-05-06 07:33 | 51.50439 | 9.29479 | 31996 ft | 452 kts | 96° |
| 2026-05-06 07:34 | 51.50229 | 9.34510 | 32285 ft | 452 kts | 96° |
| 2026-05-06 07:34 | 51.50016 | 9.39544 | 32615 ft | 452 kts | 96° |
| 2026-05-06 07:34 | 51.49801 | 9.44586 | 32747 ft | 456 kts | 96° |
| 2026-05-06 07:34 | 51.49580 | 9.49685 | 32746 ft | 457 kts | 96° |
| 2026-05-06 07:35 | 51.49143 | 9.59723 | 32731 ft | 449 kts | 96° |
| 2026-05-06 07:35 | 51.48699 | 9.69696 | 32744 ft | 448 kts | 96° |
| 2026-05-06 07:36 | 51.48244 | 9.79691 | 32747 ft | 449 kts | 96° |
| 2026-05-06 07:36 | 51.47781 | 9.89685 | 32754 ft | 449 kts | 96° |
| 2026-05-06 07:37 | 51.47309 | 9.99703 | 32749 ft | 450 kts | 96° |
| 2026-05-06 07:37 | 51.46831 | 10.09673 | 32747 ft | 451 kts | 97° |
| 2026-05-06 07:38 | 51.46340 | 10.19714 | 32753 ft | 452 kts | 97° |
| 2026-05-06 07:38 | 51.45841 | 10.29775 | 32747 ft | 452 kts | 97° |
| 2026-05-06 07:39 | 51.45333 | 10.39842 | 32756 ft | 453 kts | 97° |
| 2026-05-06 07:39 | 51.44792 | 10.49894 | 32751 ft | 453 kts | 100° |
| 2026-05-06 07:40 | 51.43420 | 10.59694 | 32751 ft | 451 kts | 107° |
| 2026-05-06 07:40 | 51.41807 | 10.69406 | 32755 ft | 451 kts | 107° |
| 2026-05-06 07:41 | 51.40215 | 10.79131 | 32754 ft | 451 kts | 107° |
| 2026-05-06 07:41 | 51.38647 | 10.88868 | 32759 ft | 452 kts | 107° |
| 2026-05-06 07:42 | 51.37080 | 10.98605 | 32756 ft | 452 kts | 107° |
| 2026-05-06 07:42 | 51.35500 | 11.08364 | 32766 ft | 453 kts | 107° |
| 2026-05-06 07:43 | 51.33921 | 11.18053 | 32752 ft | 454 kts | 107° |
| 2026-05-06 07:43 | 51.32320 | 11.27817 | 32760 ft | 454 kts | 107° |
| 2026-05-06 07:44 | 51.30713 | 11.37574 | 32762 ft | 454 kts | 107° |
| 2026-05-06 07:44 | 51.29094 | 11.47325 | 32766 ft | 454 kts | 107° |
| 2026-05-06 07:45 | 51.27405 | 11.57046 | 32762 ft | 455 kts | 108° |
| 2026-05-06 07:45 | 51.25761 | 11.66833 | 32769 ft | 457 kts | 107° |
| 2026-05-06 07:46 | 51.24134 | 11.76659 | 32755 ft | 458 kts | 107° |
| 2026-05-06 07:46 | 51.22487 | 11.86491 | 32753 ft | 459 kts | 107° |
| 2026-05-06 07:47 | 51.20833 | 11.96270 | 32763 ft | 459 kts | 108° |
| 2026-05-06 07:47 | 51.19137 | 12.06097 | 32755 ft | 460 kts | 108° |
| 2026-05-06 07:48 | 51.17433 | 12.15916 | 32773 ft | 460 kts | 108° |
| 2026-05-06 07:48 | 51.15717 | 12.25759 | 32762 ft | 461 kts | 108° |
| 2026-05-06 07:49 | 51.13982 | 12.35616 | 32767 ft | 463 kts | 109° |
| 2026-05-06 07:49 | 51.12234 | 12.45500 | 32777 ft | 464 kts | 109° |
| 2026-05-06 07:50 | 51.10472 | 12.55428 | 32770 ft | 466 kts | 109° |
| 2026-05-06 07:50 | 51.08695 | 12.65361 | 32766 ft | 468 kts | 109° |
| 2026-05-06 07:51 | 51.06886 | 12.75320 | 32758 ft | 469 kts | 110° |
| 2026-05-06 07:51 | 51.05072 | 12.85249 | 32766 ft | 471 kts | 110° |
| 2026-05-06 07:52 | 51.03235 | 12.95266 | 32758 ft | 472 kts | 110° |
| 2026-05-06 07:52 | 51.01386 | 13.05297 | 32751 ft | 473 kts | 110° |
| 2026-05-06 07:53 | 50.99528 | 13.15327 | 32758 ft | 474 kts | 110° |
| 2026-05-06 07:53 | 50.97657 | 13.25379 | 32761 ft | 475 kts | 111° |
| 2026-05-06 07:54 | 50.95787 | 13.35451 | 32759 ft | 477 kts | 110° |
| 2026-05-06 07:54 | 50.94020 | 13.45535 | 32530 ft | 479 kts | 110° |
| 2026-05-06 07:55 | 50.93116 | 13.50632 | 31878 ft | 480 kts | 111° |
| 2026-05-06 07:55 | 50.92176 | 13.55692 | 31211 ft | 478 kts | 111° |
| 2026-05-06 07:55 | 50.91218 | 13.60744 | 30495 ft | 479 kts | 111° |
| 2026-05-06 07:55 | 50.90243 | 13.65803 | 29740 ft | 478 kts | 114° |
| 2026-05-06 07:56 | 50.88947 | 13.70619 | 28874 ft | 473 kts | 123° |
| 2026-05-06 07:56 | 50.87267 | 13.75016 | 28314 ft | 460 kts | 132° |
| 2026-05-06 07:56 | 50.85263 | 13.78880 | 27779 ft | 450 kts | 136° |
| 2026-05-06 07:56 | 50.83234 | 13.82621 | 27204 ft | 447 kts | 136° |
| 2026-05-06 07:57 | 50.81246 | 13.86372 | 26677 ft | 442 kts | 135° |
| 2026-05-06 07:57 | 50.79469 | 13.90344 | 26128 ft | 445 kts | 126° |
| 2026-05-06 07:57 | 50.77918 | 13.94583 | 25569 ft | 443 kts | 129° |
| 2026-05-06 07:57 | 50.75978 | 13.98257 | 24935 ft | 431 kts | 143° |
| 2026-05-06 07:58 | 50.73617 | 14.01070 | 24308 ft | 421 kts | 154° |
| 2026-05-06 07:58 | 50.71067 | 14.03101 | 23684 ft | 413 kts | 164° |
| 2026-05-06 07:58 | 50.68394 | 14.04758 | 23086 ft | 410 kts | 164° |
| 2026-05-06 07:58 | 50.65747 | 14.06420 | 22470 ft | 407 kts | 163° |
| 2026-05-06 07:59 | 50.63133 | 14.08083 | 21903 ft | 404 kts | 163° |
| 2026-05-06 07:59 | 50.60541 | 14.09746 | 21363 ft | 400 kts | 163° |
| 2026-05-06 07:59 | 50.57968 | 14.11403 | 20799 ft | 398 kts | 162° |
| 2026-05-06 07:59 | 50.55409 | 14.13053 | 20233 ft | 395 kts | 162° |
| 2026-05-06 08:00 | 50.53729 | 14.14136 | 19875 ft | 394 kts | 162° |
| 2026-05-06 08:00 | 50.50572 | 14.16170 | 19212 ft | 390 kts | 162° |
| 2026-05-06 08:00 | 50.48067 | 14.17782 | 18704 ft | 388 kts | 162° |
| 2026-05-06 08:00 | 50.45612 | 14.19360 | 18205 ft | 385 kts | 162° |
| 2026-05-06 08:01 | 50.43136 | 14.20949 | 17647 ft | 383 kts | 162° |
| 2026-05-06 08:01 | 50.40650 | 14.22544 | 17112 ft | 380 kts | 162° |
| 2026-05-06 08:01 | 50.38250 | 14.24081 | 16596 ft | 376 kts | 162° |
| 2026-05-06 08:01 | 50.35837 | 14.25626 | 16097 ft | 373 kts | 162° |
| 2026-05-06 08:02 | 50.33447 | 14.27154 | 15719 ft | 366 kts | 162° |
| 2026-05-06 08:02 | 50.31130 | 14.28637 | 15612 ft | 351 kts | 162° |
| 2026-05-06 08:02 | 50.28911 | 14.30056 | 15521 ft | 338 kts | 162° |
| 2026-05-06 08:02 | 50.26767 | 14.31423 | 15440 ft | 327 kts | 162° |
| 2026-05-06 08:03 | 50.24715 | 14.32730 | 15336 ft | 311 kts | 162° |
| 2026-05-06 08:03 | 50.22757 | 14.33976 | 15226 ft | 296 kts | 163° |
| 2026-05-06 08:03 | 50.20878 | 14.35168 | 14948 ft | 289 kts | 163° |
| 2026-05-06 08:03 | 50.19011 | 14.36348 | 14627 ft | 289 kts | 163° |
| 2026-05-06 08:04 | 50.17154 | 14.37523 | 14376 ft | 286 kts | 163° |
| 2026-05-06 08:04 | 50.15312 | 14.38690 | 14079 ft | 285 kts | 162° |
| 2026-05-06 08:04 | 50.13615 | 14.40324 | 13721 ft | 295 kts | 141° |
| 2026-05-06 08:04 | 50.12272 | 14.42818 | 13343 ft | 301 kts | 131° |
| 2026-05-06 08:05 | 50.11039 | 14.45429 | 12954 ft | 302 kts | 131° |
| 2026-05-06 08:05 | 50.09774 | 14.48100 | 12376 ft | 309 kts | 131° |
| 2026-05-06 08:05 | 50.08487 | 14.50787 | 11807 ft | 310 kts | 131° |
| 2026-05-06 08:05 | 50.07187 | 14.53470 | 11220 ft | 312 kts | 131° |
| 2026-05-06 08:06 | 50.05869 | 14.56177 | 10572 ft | 315 kts | 131° |
| 2026-05-06 08:06 | 50.04534 | 14.58891 | 9921 ft | 317 kts | 133° |
| 2026-05-06 08:06 | 50.03228 | 14.61676 | 9242 ft | 321 kts | 128° |
| 2026-05-06 08:06 | 50.01980 | 14.64574 | 8542 ft | 323 kts | 127° |
| 2026-05-06 08:07 | 50.00750 | 14.67460 | 7866 ft | 324 kts | 127° |
| 2026-05-06 08:07 | 49.99461 | 14.70343 | 7174 ft | 323 kts | 135° |
| 2026-05-06 08:07 | 49.97663 | 14.72277 | 6512 ft | 312 kts | 166° |
| 2026-05-06 08:07 | 49.95587 | 14.72511 | 6113 ft | 290 kts | 198° |
| 2026-05-06 08:08 | 49.93805 | 14.71319 | 5809 ft | 273 kts | 217° |
| 2026-05-06 08:08 | 49.92591 | 14.69192 | 5455 ft | 260 kts | 245° |
| 2026-05-06 08:08 | 49.92138 | 14.66544 | 5236 ft | 250 kts | 265° |
| 2026-05-06 08:08 | 49.92257 | 14.63898 | 5095 ft | 245 kts | 280° |
| 2026-05-06 08:09 | 49.92889 | 14.61474 | 4959 ft | 242 kts | 301° |
| 2026-05-06 08:09 | 49.93869 | 14.59396 | 4874 ft | 235 kts | 303° |
| 2026-05-06 08:09 | 49.94839 | 14.57397 | 4771 ft | 228 kts | 303° |
| 2026-05-06 08:09 | 49.95772 | 14.55483 | 4664 ft | 215 kts | 303° |
| 2026-05-06 08:10 | 49.96644 | 14.53700 | 4557 ft | 206 kts | 303° |
| 2026-05-06 08:10 | 49.97506 | 14.51931 | 4462 ft | 203 kts | 303° |
| 2026-05-06 08:10 | 49.98369 | 14.50157 | 4373 ft | 208 kts | 303° |
| 2026-05-06 08:10 | 49.99257 | 14.48348 | 4275 ft | 212 kts | 304° |
| 2026-05-06 08:11 | 50.00184 | 14.46554 | 4130 ft | 213 kts | 304° |
| 2026-05-06 08:11 | 50.00788 | 14.45340 | 3947 ft | 214 kts | 303° |
| 2026-05-06 08:11 | 50.01951 | 14.42930 | 3574 ft | 206 kts | 303° |
| 2026-05-06 08:11 | 50.02796 | 14.41171 | 3339 ft | 199 kts | 303° |
| 2026-05-06 08:12 | 50.03337 | 14.40045 | 3163 ft | 193 kts | 302° |
| 2026-05-06 08:12 | 50.04110 | 14.38438 | 2931 ft | 176 kts | 302° |
| 2026-05-06 08:12 | 50.04811 | 14.36979 | 2702 ft | 160 kts | 302° |
| 2026-05-06 08:12 | 50.05453 | 14.35639 | 2478 ft | 150 kts | 301° |
| 2026-05-06 08:13 | 50.06282 | 14.33917 | 2203 ft | 150 kts | 301° |
| 2026-05-06 08:13 | 50.06707 | 14.33032 | 2068 ft | 151 kts | 301° |
| 2026-05-06 08:13 | 50.07316 | 14.31736 | 1891 ft | 150 kts | 300° |
| 2026-05-06 08:13 | 50.07959 | 14.30423 | 1654 ft | 155 kts | 302° |
| 2026-05-06 08:14 | 50.08615 | 14.29066 | 1462 ft | 157 kts | 302° |
| 2026-05-06 08:14 | 50.09274 | 14.27702 | 1245 ft | 153 kts | 302° |
| 2026-05-06 08:14 | 50.09838 | 14.26524 | 1211 ft | 108 kts | 307° |
| 2026-05-06 08:14 | 50.10152 | 14.25876 | 1189 ft | 33 kts | 307° |
| 2026-05-06 08:15 | 50.10244 | 14.25721 | 1187 ft | 13 kts | 333° |
| 2026-05-06 08:15 | 50.10325 | 14.25670 | 1185 ft | 12 kts | 343° |
| 2026-05-06 08:15 | 50.10408 | 14.25656 | 1185 ft | 12 kts | 6° |
| 2026-05-06 08:15 | 50.10481 | 14.25698 | 1184 ft | 12 kts | 61° |
| 2026-05-06 08:16 | 50.10496 | 14.25821 | 1184 ft | 11 kts | 81° |
| 2026-05-06 08:16 | 50.10513 | 14.25945 | 1182 ft | 12 kts | 78° |
| 2026-05-06 08:16 | 50.10529 | 14.26071 | 1180 ft | 11 kts | 80° |
| 2026-05-06 08:16 | 50.10539 | 14.26181 | 1176 ft | 7 kts | 92° |
| 2026-05-06 08:17 | 50.10554 | 14.26240 | 1173 ft | 6 kts | 39° |
| 2026-05-06 08:17 | 50.10580 | 14.26265 | 1176 ft | 2 kts | 33° |
| 2026-05-06 08:17 | 50.10590 | 14.26276 | 1174 ft | 2 kts | 34° |
| 2026-05-06 08:17 | 50.10598 | 14.26284 | 1175 ft | 0 kts | 34° |